createdAt,value
2022-11-24T00:01:24.859Z,100047.59
2022-11-24T00:04:03.787Z,100046.96
2022-11-24T00:06:33.833Z,100042.29
2022-11-24T00:09:03.096Z,100050.32
2022-11-24T00:11:36.142Z,100055.30
2022-11-24T00:14:05.434Z,100049.47
2022-11-24T00:16:35.959Z,100045.53
2022-11-24T00:19:06.861Z,100037.27
2022-11-24T00:21:35.849Z,100029.80
2022-11-24T00:24:04.525Z,100033.94
2022-11-24T00:26:34.830Z,100040.95
2022-11-24T00:29:04.549Z,100038.80
2022-11-24T00:31:35.710Z,100033.77
2022-11-24T00:34:06.201Z,100035.61
2022-11-24T00:36:35.800Z,100043.83
2022-11-24T00:39:11.853Z,100041.92
2022-11-24T00:41:40.621Z,100045.64
2022-11-24T00:44:09.386Z,100045.45
2022-11-24T00:46:37.821Z,100049.19
2022-11-24T00:49:06.426Z,100056.29
2022-11-24T00:51:34.710Z,100063.11
2022-11-24T00:54:03.288Z,100075.08
2022-11-24T00:56:31.433Z,100086.61
2022-11-24T00:58:59.814Z,100089.23
2022-11-24T01:01:29.245Z,100092.94
2022-11-24T01:04:01.446Z,100094.73
2022-11-24T01:06:30.852Z,100089.13
2022-11-24T01:08:59.140Z,100085.70
2022-11-24T01:11:54.429Z,100089.79
2022-11-24T01:14:24.157Z,100094.92
2022-11-24T01:16:52.324Z,100087.69
2022-11-24T01:19:20.927Z,100085.90
2022-11-24T01:21:49.465Z,100083.85
2022-11-24T01:24:17.816Z,100086.27
2022-11-24T01:26:45.972Z,100092.75
2022-11-24T01:29:14.192Z,100092.27
2022-11-24T01:31:42.386Z,100095.10
2022-11-24T01:34:10.617Z,100093.19
2022-11-24T01:36:38.829Z,100095.29
2022-11-24T01:39:07.028Z,100099.96
2022-11-24T01:41:35.952Z,100104.23
2022-11-24T01:44:21.607Z,100105.98
2022-11-24T01:46:53.818Z,100116.31
2022-11-24T01:49:28.118Z,100124.40
2022-11-24T01:52:00.808Z,100126.93
2022-11-24T01:54:32.540Z,100123.59
2022-11-24T01:57:05.933Z,100127.55
2022-11-24T01:59:34.176Z,100126.86
2022-11-24T02:02:02.466Z,100119.29
2022-11-24T02:04:33.284Z,100115.72
2022-11-24T02:07:03.046Z,100111.08
2022-11-24T02:09:58.301Z,100110.77
2022-11-24T02:12:27.433Z,100108.96
2022-11-24T02:14:56.303Z,100108.44
2022-11-24T02:17:24.457Z,100106.08
2022-11-24T02:19:58.071Z,100109.08
2022-11-24T02:22:32.002Z,100106.95
2022-11-24T02:25:32.689Z,100107.14
2022-11-24T02:28:03.287Z,100108.34
2022-11-24T02:30:31.730Z,100110.02
2022-11-24T02:33:00.152Z,100105.19
2022-11-24T02:35:28.771Z,100105.17
2022-11-24T02:37:56.911Z,100108.73
2022-11-24T02:40:27.882Z,100110.95
2022-11-24T02:43:08.174Z,100104.55
2022-11-24T02:45:36.374Z,100100.38
2022-11-24T02:48:04.824Z,100096.16
2022-11-24T02:50:33.110Z,100096.50
2022-11-24T02:53:01.253Z,100099.20
2022-11-24T02:55:29.446Z,100100.22
2022-11-24T02:57:57.673Z,100097.96
2022-11-24T03:00:26.025Z,100095.52
2022-11-24T03:02:54.262Z,100093.83
2022-11-24T03:05:23.601Z,100095.09
2022-11-24T03:07:51.886Z,100096.48
2022-11-24T03:10:20.157Z,100099.23
2022-11-24T03:12:48.321Z,100098.37
2022-11-24T03:15:16.574Z,100096.52
2022-11-24T03:17:44.826Z,100100.09
2022-11-24T03:20:13.360Z,100102.75
2022-11-24T03:22:41.924Z,100106.83
2022-11-24T03:25:10.297Z,100109.52
2022-11-24T03:27:38.484Z,100110.23
2022-11-24T03:30:07.712Z,100111.31
2022-11-24T03:32:35.933Z,100109.80
2022-11-24T03:35:04.661Z,100109.92
2022-11-24T03:37:32.812Z,100114.74
2022-11-24T03:40:01.048Z,100118.79
2022-11-24T03:42:29.190Z,100118.56
2022-11-24T03:44:57.339Z,100121.05
2022-11-24T03:47:25.513Z,100119.55
2022-11-24T03:49:53.648Z,100115.73
2022-11-24T03:52:21.820Z,100113.80
2022-11-24T03:54:49.990Z,100110.59
2022-11-24T03:57:18.264Z,100112.73
2022-11-24T03:59:46.422Z,100118.00
2022-11-24T04:02:14.618Z,100116.45
2022-11-24T04:04:47.041Z,100119.13
2022-11-24T04:07:18.095Z,100115.83
2022-11-24T04:09:46.304Z,100112.06
2022-11-24T04:12:32.900Z,100113.61
2022-11-24T04:15:01.037Z,100111.23
2022-11-24T04:17:29.304Z,100112.16
2022-11-24T04:19:57.553Z,100115.29
2022-11-24T04:22:25.806Z,100114.49
2022-11-24T04:24:53.986Z,100116.85
2022-11-24T04:27:22.178Z,100129.01
2022-11-24T04:29:51.269Z,100139.13
2022-11-24T04:32:19.423Z,100142.70
2022-11-24T04:34:47.561Z,100140.82
2022-11-24T04:37:15.706Z,100130.41
2022-11-24T04:39:45.085Z,100134.14
2022-11-24T04:42:13.690Z,100141.36
2022-11-24T04:44:41.882Z,100143.32
2022-11-24T04:47:16.502Z,100150.09
2022-11-24T04:49:44.636Z,100147.64
2022-11-24T04:52:12.765Z,100151.61
2022-11-24T04:54:40.943Z,100154.88
2022-11-24T04:57:16.872Z,100156.42
2022-11-24T04:59:45.027Z,100151.56
2022-11-24T05:02:13.687Z,100153.52
2022-11-24T05:04:42.215Z,100151.59
2022-11-24T05:07:18.223Z,100154.36
2022-11-24T05:10:06.017Z,100159.05
2022-11-24T05:12:34.218Z,100161.89
2022-11-24T05:15:04.149Z,100161.52
2022-11-24T05:17:34.717Z,100166.20
2022-11-24T05:20:04.521Z,100163.83
2022-11-24T05:22:32.819Z,100160.28
2022-11-24T05:25:01.986Z,100161.83
2022-11-24T05:27:30.272Z,100168.98
2022-11-24T05:29:58.375Z,100173.81
2022-11-24T05:32:26.607Z,100178.05
2022-11-24T05:34:54.872Z,100186.41
2022-11-24T05:37:23.085Z,100189.65
2022-11-24T05:39:51.496Z,100201.45
2022-11-24T05:42:40.878Z,100204.38
2022-11-24T05:45:15.508Z,100205.70
2022-11-24T05:47:43.777Z,100209.56
2022-11-24T05:50:14.049Z,100188.65
2022-11-24T05:52:42.281Z,100194.09
2022-11-24T05:55:11.525Z,100199.19
2022-11-24T05:57:39.812Z,100208.40
2022-11-24T06:00:09.457Z,100221.34
2022-11-24T06:02:37.844Z,100226.44
2022-11-24T06:05:06.598Z,100234.48
2022-11-24T06:07:34.891Z,100238.70
2022-11-24T06:10:03.318Z,100242.30
2022-11-24T06:12:31.600Z,100246.57
2022-11-24T06:14:59.759Z,100251.15
2022-11-24T06:17:28.516Z,100252.29
2022-11-24T06:19:56.674Z,100253.25
2022-11-24T06:22:24.875Z,100254.13
2022-11-24T06:24:53.141Z,100262.70
2022-11-24T06:27:21.401Z,100261.05
2022-11-24T06:29:49.625Z,100266.98
2022-11-24T06:32:17.853Z,100268.09
2022-11-24T06:34:46.094Z,100265.81
2022-11-24T06:37:14.539Z,100264.22
2022-11-24T06:39:42.833Z,100260.66
2022-11-24T06:42:11.166Z,100258.98
2022-11-24T06:44:39.703Z,100260.73
2022-11-24T06:47:07.976Z,100259.58
2022-11-24T06:49:36.165Z,100261.31
2022-11-24T06:52:04.557Z,100261.95
2022-11-24T06:54:33.160Z,100262.03
2022-11-24T06:57:01.496Z,100264.67
2022-11-24T06:59:29.797Z,100265.77
2022-11-24T07:01:57.983Z,100267.20
2022-11-24T07:04:26.195Z,100266.23
2022-11-24T07:06:54.636Z,100264.47
2022-11-24T07:09:22.868Z,100262.20
2022-11-24T07:11:51.152Z,100261.89
2022-11-24T07:14:19.529Z,100258.98
2022-11-24T07:16:47.832Z,100261.26
2022-11-24T07:19:20.177Z,100261.52
2022-11-24T07:21:51.491Z,100262.05
2022-11-24T07:24:19.617Z,100263.35
2022-11-24T07:26:47.823Z,100264.59
2022-11-24T07:29:16.062Z,100266.36
2022-11-24T07:31:46.203Z,100260.52
2022-11-24T07:34:15.005Z,100261.36
2022-11-24T07:36:43.213Z,100258.05
2022-11-24T07:39:11.458Z,100264.76
2022-11-24T07:41:39.601Z,100266.44
2022-11-24T07:44:08.042Z,100272.20
2022-11-24T07:46:36.232Z,100278.36
2022-11-24T07:49:04.436Z,100282.10
2022-11-24T07:51:32.639Z,100282.73
2022-11-24T07:54:00.844Z,100286.23
2022-11-24T07:56:29.337Z,100283.17
2022-11-24T07:58:57.557Z,100286.61
2022-11-24T08:01:25.837Z,100290.52
2022-11-24T08:03:54.150Z,100290.28
2022-11-24T08:06:24.969Z,100298.07
2022-11-24T08:08:56.299Z,100300.19
2022-11-24T08:11:25.076Z,100303.37
2022-11-24T08:13:53.545Z,100300.30
2022-11-24T08:16:21.832Z,100295.52
2022-11-24T08:18:55.053Z,100294.45
2022-11-24T08:21:23.740Z,100299.44
2022-11-24T08:23:56.812Z,100296.63
2022-11-24T08:26:25.722Z,100301.38
2022-11-24T08:28:56.749Z,100303.02
2022-11-24T08:31:28.924Z,100308.80
2022-11-24T08:33:57.142Z,100306.30
2022-11-24T08:36:25.436Z,100303.39
2022-11-24T08:38:58.631Z,100299.38
2022-11-24T08:41:28.154Z,100298.10
2022-11-24T08:43:56.402Z,100297.09
2022-11-24T08:46:24.661Z,100299.94
2022-11-24T08:48:54.762Z,100303.84
2022-11-24T08:51:26.278Z,100302.23
2022-11-24T08:53:59.870Z,100301.92
2022-11-24T08:56:29.675Z,100306.25
2022-11-24T08:58:58.387Z,100304.33
2022-11-24T09:01:28.167Z,100302.89
2022-11-24T09:03:56.902Z,100301.84
2022-11-24T09:06:27.828Z,100300.33
2022-11-24T09:08:56.350Z,100299.55
2022-11-24T09:11:25.730Z,100299.45
2022-11-24T09:13:55.308Z,100297.70
2022-11-24T09:16:29.201Z,100297.97
2022-11-24T09:19:02.905Z,100295.88
2022-11-24T09:21:32.562Z,100295.52
2022-11-24T09:24:00.819Z,100292.20
2022-11-24T09:26:30.997Z,100290.42
2022-11-24T09:29:00.197Z,100287.44
2022-11-24T09:31:36.340Z,100285.81
2022-11-24T09:34:07.203Z,100290.40
2022-11-24T09:36:35.906Z,100286.97
2022-11-24T09:39:04.503Z,100288.29
2022-11-24T09:41:54.631Z,100285.80
2022-11-24T09:44:41.484Z,100288.84
2022-11-24T09:47:37.367Z,100289.94
2022-11-24T09:50:16.976Z,100290.02
2022-11-24T09:53:06.848Z,100293.01
2022-11-24T09:55:40.714Z,100295.84
2022-11-24T09:58:30.842Z,100292.06
2022-11-24T10:00:59.805Z,100294.86
2022-11-24T10:03:33.664Z,100296.61
2022-11-24T10:06:15.402Z,100297.73
2022-11-24T10:09:08.791Z,100295.41
2022-11-24T10:11:40.341Z,100293.23
2022-11-24T10:14:17.328Z,100295.77
2022-11-24T10:17:06.017Z,100297.91
2022-11-24T10:19:57.238Z,100296.70
2022-11-24T10:22:42.328Z,100296.02
2022-11-24T10:25:22.062Z,100294.50
2022-11-24T10:28:00.260Z,100292.77
2022-11-24T10:30:29.291Z,100295.80
2022-11-24T10:33:03.787Z,100294.73
2022-11-24T10:35:45.609Z,100290.23
2022-11-24T10:38:25.829Z,100289.41
2022-11-24T10:41:00.465Z,100294.37
2022-11-24T10:43:29.725Z,100297.00
2022-11-24T10:46:14.659Z,100297.74
2022-11-24T10:48:48.610Z,100303.89
2022-11-24T10:51:44.305Z,100306.59
2022-11-24T10:54:22.415Z,100310.41
2022-11-24T10:56:52.330Z,100309.65
2022-11-24T10:59:35.479Z,100304.35
2022-11-24T11:02:30.485Z,100298.84
2022-11-24T11:04:59.308Z,100293.67
2022-11-24T11:07:27.695Z,100295.05
2022-11-24T11:10:22.296Z,100293.16
2022-11-24T11:12:50.924Z,100293.30
2022-11-24T11:15:30.247Z,100292.16
2022-11-24T11:18:00.063Z,100292.33
2022-11-24T11:20:35.371Z,100292.94
2022-11-24T11:23:15.017Z,100300.70
2022-11-24T11:25:44.012Z,100295.33
2022-11-24T11:28:18.866Z,100295.09
2022-11-24T11:31:22.061Z,100291.64
2022-11-24T11:34:03.780Z,100287.66
2022-11-24T11:36:33.371Z,100285.45
2022-11-24T11:39:04.162Z,100282.84
2022-11-24T11:41:44.017Z,100284.63
2022-11-24T11:44:44.381Z,100279.89
2022-11-24T11:47:22.859Z,100275.30
2022-11-24T11:49:51.177Z,100277.02
2022-11-24T11:52:50.266Z,100278.45
2022-11-24T11:55:38.620Z,100278.14
2022-11-24T11:58:41.725Z,100280.70
2022-11-24T12:01:34.690Z,100279.95
2022-11-24T12:04:11.729Z,100282.71
2022-11-24T12:07:09.771Z,100279.95
2022-11-24T12:09:56.626Z,100282.55
2022-11-24T12:12:42.857Z,100287.80
2022-11-24T12:15:17.478Z,100292.47
2022-11-24T12:17:55.927Z,100291.09
2022-11-24T12:20:56.470Z,100292.54
2022-11-24T12:23:48.982Z,100292.22
2022-11-24T12:26:35.493Z,100291.08
2022-11-24T12:29:20.591Z,100289.47
2022-11-24T12:31:54.871Z,100287.84
2022-11-24T12:34:54.159Z,100288.92
2022-11-24T12:37:42.254Z,100294.76
2022-11-24T12:40:25.688Z,100295.70
2022-11-24T12:43:11.279Z,100298.41
2022-11-24T12:46:15.667Z,100298.83
2022-11-24T12:49:08.624Z,100297.25
2022-11-24T12:51:40.203Z,100294.84
2022-11-24T12:54:15.801Z,100296.69
2022-11-24T12:56:49.014Z,100300.18
2022-11-24T12:59:45.594Z,100302.92
2022-11-24T13:02:33.716Z,100302.32
2022-11-24T13:05:13.348Z,100301.69
2022-11-24T13:07:58.008Z,100300.14
2022-11-24T13:13:15.700Z,100298.67
2022-11-24T13:16:13.093Z,100294.77
2022-11-24T13:18:57.497Z,100295.27
2022-11-24T13:21:29.631Z,100293.13
2022-11-24T13:24:02.869Z,100295.16
2022-11-24T13:26:43.225Z,100293.46
2022-11-24T13:29:31.071Z,100294.98
2022-11-24T13:32:05.022Z,100300.73
2022-11-24T13:34:38.971Z,100302.35
2022-11-24T13:37:32.103Z,100300.27
2022-11-24T13:40:24.003Z,100304.61
2022-11-24T13:42:55.025Z,100302.44
2022-11-24T13:45:39.297Z,100305.73
2022-11-24T13:48:19.624Z,100308.05
2022-11-24T13:50:51.323Z,100307.80
2022-11-24T13:53:38.675Z,100312.09
2022-11-24T13:56:12.757Z,100316.23
2022-11-24T13:58:45.675Z,100320.21
2022-11-24T14:01:24.393Z,100322.21
2022-11-24T14:06:53.065Z,100321.77
2022-11-24T14:09:27.066Z,100323.59
2022-11-24T14:12:20.515Z,100319.80
2022-11-24T14:14:50.693Z,100318.52
2022-11-24T14:17:22.544Z,100322.27
2022-11-24T14:19:56.025Z,100326.19
2022-11-24T14:22:27.895Z,100327.97
2022-11-24T14:25:01.185Z,100327.09
2022-11-24T14:27:38.035Z,100334.08
2022-11-24T14:30:13.669Z,100332.61
2022-11-24T14:32:57.145Z,100332.17
2022-11-24T14:35:32.739Z,100330.55
2022-11-24T14:38:05.859Z,100330.51
2022-11-24T14:40:43.669Z,100330.00
2022-11-24T14:43:31.186Z,100332.36
2022-11-24T14:46:05.166Z,100336.15
2022-11-24T14:48:37.174Z,100336.55
2022-11-24T14:51:28.934Z,100336.13
2022-11-24T14:54:03.804Z,100337.33
2022-11-24T14:56:36.838Z,100342.31
2022-11-24T14:59:21.253Z,100346.63
2022-11-24T15:01:49.579Z,100349.20
2022-11-24T15:04:46.685Z,100350.52
2022-11-24T15:07:29.414Z,100353.29
2022-11-24T15:10:02.046Z,100359.61
2022-11-24T15:12:35.057Z,100363.79
2022-11-24T15:15:17.626Z,100365.34
2022-11-24T15:17:51.909Z,100370.09
2022-11-24T15:20:45.700Z,100374.23
2022-11-24T15:23:13.840Z,100374.73
2022-11-24T15:25:42.687Z,100378.79
2022-11-24T15:28:12.121Z,100382.83
2022-11-24T15:30:40.300Z,100386.26
2022-11-24T15:33:18.871Z,100387.42
2022-11-24T15:35:47.383Z,100386.11
2022-11-24T15:38:16.292Z,100384.58
2022-11-24T15:40:46.536Z,100387.29
2022-11-24T15:43:23.929Z,100383.17
2022-11-24T15:45:52.087Z,100379.76
2022-11-24T15:48:20.272Z,100381.20
2022-11-24T15:50:48.777Z,100381.58
2022-11-24T15:53:26.102Z,100382.52
2022-11-24T15:55:56.500Z,100384.23
2022-11-24T15:58:24.943Z,100388.17
2022-11-24T16:00:53.959Z,100390.01
2022-11-24T16:03:46.163Z,100390.75
2022-11-24T16:06:23.381Z,100391.85
2022-11-24T16:08:55.041Z,100395.33
2022-11-24T16:11:23.603Z,100396.02
2022-11-24T16:13:53.751Z,100392.33
2022-11-24T16:16:23.320Z,100392.17
2022-11-24T16:18:51.592Z,100392.33
2022-11-24T16:21:19.899Z,100395.13
2022-11-24T16:23:48.922Z,100393.45
2022-11-24T16:26:17.104Z,100391.85
2022-11-24T16:28:46.023Z,100393.39
2022-11-24T16:31:16.408Z,100392.77
2022-11-24T16:33:46.612Z,100396.48
2022-11-24T16:36:14.947Z,100397.73
2022-11-24T16:38:43.162Z,100396.70
2022-11-24T16:41:11.607Z,100399.48
2022-11-24T16:43:39.972Z,100401.95
2022-11-24T16:46:17.349Z,100401.46
2022-11-24T16:48:47.573Z,100408.38
2022-11-24T16:51:16.926Z,100411.91
2022-11-24T16:53:45.224Z,100411.42
2022-11-24T16:56:14.966Z,100413.42
2022-11-24T16:58:43.573Z,100412.52
2022-11-24T17:01:13.672Z,100417.14
2022-11-24T17:03:42.326Z,100419.92
2022-11-24T17:06:13.083Z,100426.02
2022-11-24T17:08:41.844Z,100431.84
2022-11-24T17:11:13.156Z,100438.52
2022-11-24T17:13:42.124Z,100440.25
2022-11-24T17:16:12.844Z,100446.77
2022-11-24T17:18:41.692Z,100453.47
2022-11-24T17:21:18.097Z,100450.50
2022-11-24T17:23:46.530Z,100450.75
2022-11-24T17:26:16.983Z,100448.16
2022-11-24T17:28:45.491Z,100448.56
2022-11-24T17:31:20.941Z,100450.58
2022-11-24T17:33:50.352Z,100453.92
2022-11-24T17:36:18.614Z,100457.77
2022-11-24T17:38:46.864Z,100458.41
2022-11-24T17:41:15.346Z,100464.13
2022-11-24T17:43:43.583Z,100461.95
2022-11-24T17:46:11.916Z,100461.11
2022-11-24T17:48:40.418Z,100463.63
2022-11-24T17:51:15.045Z,100463.60
2022-11-24T17:53:45.642Z,100465.02
2022-11-24T17:56:17.798Z,100465.45
2022-11-24T17:58:46.108Z,100464.27
2022-11-24T18:01:14.386Z,100461.88
2022-11-24T18:03:42.861Z,100456.77
2022-11-24T18:06:12.999Z,100456.52
2022-11-24T18:08:43.291Z,100458.67
2022-11-24T18:11:17.411Z,100457.97
2022-11-24T18:14:02.128Z,100459.29
2022-11-24T18:16:32.744Z,100460.35
2022-11-24T18:19:11.052Z,100462.97
2022-11-24T18:21:40.936Z,100466.66
2022-11-24T18:24:10.892Z,100468.61
2022-11-24T18:26:40.238Z,100473.01
2022-11-24T18:29:09.354Z,100478.45
2022-11-24T18:31:37.978Z,100481.11
2022-11-24T18:34:06.682Z,100479.15
2022-11-24T18:36:35.251Z,100479.73
2022-11-24T18:39:04.744Z,100480.14
2022-11-24T18:41:33.494Z,100484.98
2022-11-24T18:44:08.310Z,100488.10
2022-11-24T18:46:37.951Z,100489.65
2022-11-24T18:49:07.436Z,100488.88
2022-11-24T18:51:36.081Z,100489.30
2022-11-24T18:54:05.674Z,100493.79
2022-11-24T18:56:34.233Z,100496.23
2022-11-24T18:59:02.653Z,100502.67
2022-11-24T19:01:30.920Z,100502.05
2022-11-24T19:04:02.099Z,100497.94
2022-11-24T19:06:33.003Z,100500.44
2022-11-24T19:09:11.993Z,100504.73
2022-11-24T19:11:42.740Z,100500.27
2022-11-24T19:14:14.207Z,100500.02
2022-11-24T19:16:43.255Z,100498.75
2022-11-24T19:19:12.783Z,100500.55
2022-11-24T19:21:41.575Z,100505.91
2022-11-24T19:24:10.419Z,100511.20
2022-11-24T19:26:39.735Z,100513.86
2022-11-24T19:29:08.368Z,100511.59
2022-11-24T19:31:38.820Z,100509.58
2022-11-24T19:34:08.315Z,100514.22
2022-11-24T19:36:36.795Z,100517.27
2022-11-24T19:39:05.402Z,100522.61
2022-11-24T19:41:34.854Z,100522.96
2022-11-24T19:44:03.089Z,100525.31
2022-11-24T19:46:31.366Z,100525.45
2022-11-24T19:49:01.413Z,100525.90
2022-11-24T19:51:33.057Z,100521.56
2022-11-24T19:54:02.246Z,100520.98
2022-11-24T19:56:34.334Z,100517.11
2022-11-24T19:59:04.439Z,100524.30
2022-11-24T20:01:37.768Z,100526.20
2022-11-24T20:04:08.515Z,100530.91
2022-11-24T20:06:38.788Z,100534.03
2022-11-24T20:09:09.658Z,100531.31
2022-11-24T20:11:38.602Z,100533.00
2022-11-24T20:14:08.101Z,100531.63
2022-11-24T20:16:36.432Z,100529.77
2022-11-24T20:19:11.211Z,100533.15
2022-11-24T20:21:40.493Z,100536.27
2022-11-24T20:24:11.893Z,100537.05
2022-11-24T20:26:43.578Z,100535.83
2022-11-24T20:29:13.378Z,100535.64
2022-11-24T20:31:59.908Z,100533.59
2022-11-24T20:34:28.612Z,100535.10
2022-11-24T20:36:56.790Z,100535.30
2022-11-24T20:39:27.901Z,100532.65
2022-11-24T20:41:56.662Z,100534.11
2022-11-24T20:44:26.906Z,100539.09
2022-11-24T20:46:56.387Z,100543.19
2022-11-24T20:49:25.313Z,100547.66
2022-11-24T20:51:55.180Z,100547.75
2022-11-24T20:54:23.812Z,100547.52
2022-11-24T20:56:52.061Z,100549.33
2022-11-24T20:59:22.767Z,100546.80
2022-11-24T21:01:52.235Z,100550.17
2022-11-24T21:04:23.125Z,100551.34
2022-11-24T21:06:51.307Z,100551.66
2022-11-24T21:09:19.450Z,100550.95
2022-11-24T21:11:48.184Z,100551.67
2022-11-24T21:14:16.610Z,100547.93
2022-11-24T21:16:44.980Z,100547.77
2022-11-24T21:19:15.060Z,100548.45
2022-11-24T21:21:43.611Z,100547.30
2022-11-24T21:24:14.354Z,100549.09
2022-11-24T21:26:43.887Z,100547.06
2022-11-24T21:29:13.270Z,100549.90
2022-11-24T21:31:41.997Z,100553.86
2022-11-24T21:34:10.388Z,100550.39
2022-11-24T21:36:41.033Z,100551.11
2022-11-24T21:39:12.935Z,100556.85
2022-11-24T21:41:41.665Z,100556.16
2022-11-24T21:44:12.409Z,100559.20
2022-11-24T21:46:46.072Z,100562.02
2022-11-24T21:49:19.209Z,100569.34
2022-11-24T21:51:47.607Z,100574.75
2022-11-24T21:54:15.880Z,100579.75
2022-11-24T21:56:44.088Z,100579.44
2022-11-24T21:59:12.368Z,100580.78
2022-11-24T22:01:40.783Z,100583.16
2022-11-24T22:04:09.704Z,100586.45
2022-11-24T22:06:37.890Z,100586.73
2022-11-24T22:09:06.108Z,100590.03
2022-11-24T22:11:34.565Z,100589.17
2022-11-24T22:14:02.781Z,100593.54
2022-11-24T22:16:31.020Z,100595.45
2022-11-24T22:19:00.309Z,100594.34
2022-11-24T22:21:33.413Z,100595.61
2022-11-24T22:24:01.696Z,100597.80
2022-11-24T22:26:30.499Z,100601.28
2022-11-24T22:28:59.056Z,100599.58
2022-11-24T22:31:30.038Z,100601.98
2022-11-24T22:33:59.434Z,100607.93
2022-11-24T22:36:29.375Z,100609.48
2022-11-24T22:39:05.136Z,100606.69
2022-11-24T22:41:34.996Z,100607.81
2022-11-24T22:44:03.644Z,100608.80
2022-11-24T22:46:32.651Z,100605.89
2022-11-24T22:49:01.691Z,100604.59
2022-11-24T22:51:32.699Z,100602.26
2022-11-24T22:54:03.126Z,100605.30
2022-11-24T22:56:32.780Z,100608.58
2022-11-24T22:59:01.785Z,100607.59
2022-11-24T23:01:31.265Z,100604.17
2022-11-24T23:03:59.823Z,100602.34
2022-11-24T23:06:30.242Z,100604.02
2022-11-24T23:09:00.253Z,100603.64
2022-11-24T23:11:39.200Z,100601.27
2022-11-24T23:14:12.029Z,100604.09
2022-11-24T23:16:40.724Z,100607.91
2022-11-24T23:19:09.394Z,100605.24
2022-11-24T23:21:38.634Z,100608.74
2022-11-24T23:24:07.588Z,100612.23
2022-11-24T23:26:38.380Z,100612.14
2022-11-24T23:29:07.305Z,100617.00
2022-11-24T23:31:35.742Z,100621.48
2022-11-24T23:34:04.708Z,100624.00
2022-11-24T23:36:33.213Z,100627.26
2022-11-24T23:39:05.505Z,100627.59
2022-11-24T23:41:33.873Z,100631.67
2022-11-24T23:44:01.989Z,100636.86
2022-11-24T23:46:30.472Z,100642.12
2022-11-24T23:48:58.874Z,100644.88
2022-11-24T23:51:29.767Z,100647.83
2022-11-24T23:53:59.392Z,100652.77
2022-11-24T23:56:33.379Z,100658.24
2022-11-24T23:59:03.253Z,100659.79
